Aérodrome :
LOGIN :

S'inscrire | Disclaimer

   EN    FR    IT 

 










Légende :    VFR   VFR Marginal   IFR   IFR Intensif   IFR Très Intensif
Visi : 
Plafond : 
>= 8 km
>= 3000ft
5 à 8 km
1000 à 3000 ft
1500m à 5 km
500 à 1000 ft
800 à 1500m
200 à 500 ft
< 800m
< 200 ft
Symboles :   Orages  Brouillard  Fortes neiges  Fortes précipitations  Vent > 20 kt
SIGMETs :   Divers  Orages  Givrage  Turbulence  Onde Orograph.  Cendres Volcan.







- Altitude de l'aérodrome : 156 ft
- Code IATA : MLN


GEML - Melilla

DERNIER METAR :
  • 221600Z 29016G27KT 250V330 9999 FEW030 15/07 Q1017 WS ALL RWY

METARs EXPIRÉS :
  • 221530Z 28018G34KT 230V320 9999 FEW030 15/07 Q1017 WS ALL RWY
  • 221500Z 29019G31KT 250V320 9999 FEW030 15/07 Q1017 WS ALL RWY
  • 221430Z 28019G32KT 240V340 9999 FEW030 15/05 Q1017 WS ALL RWY
  • 221400Z 28019G34KT 240V320 9999 FEW030 15/06 Q1017 WS ALL RWY
  • 221330Z 27023G37KT 250V310 9999 FEW030 15/06 Q1018 WS ALL RWY

TAF TAF GEML
Valide du 22 à 15h jusqu'au 23 à 15h UTC


221400Z 2215/2315 29022G34KT 9999 SCT030 TX17/2314Z TN13/2307Z
TEMPO 2217/2315 29028G44KT
PROB30
TEMPO 2302/2307 4000 RA BKN014
Pas de NOTAMs connus pour ce terrain.
1 SIGMET publié pour la FIR Casablanca (GMMM) :
 
Onde orographique forte
GMMM SIGMET M1 VALID 221620/222020 GMMC
GMMM CASABLANCA FIR SEV MTW FCST E OF LINE N3431 W00303 - N3210 W005 15 FL030/130 STNR INTSF=



MET'MAP, la Météo Aéronautique d'un coup d'oeil ! - Copyright ORBIFLY Décembre 2007 - Disclaimer

ORBIFLY MET'MAP TEAM :

Programmation & Développement : Alexandra Zaïnal
Conception & Développement : Baudouin d'Aumeries
Co-Programmation & Développement : Marc-Olivier Méhu
Soutien technique & logistique : Manuel Goepfert

Contact : metmap@orbifly.com




SOURCES & CREDITS :

   NOAA